createdAt,value
2018-02-10T00:02:12.452Z,63.67
2018-02-10T00:04:40.808Z,59.55
2018-02-10T00:07:09.134Z,59.55
2018-02-10T00:09:37.499Z,55.30
2018-02-10T00:12:06.578Z,57.90
2018-02-10T00:14:35.663Z,55.83
2018-02-10T00:17:03.988Z,55.25
2018-02-10T00:19:32.318Z,64.12
2018-02-10T00:22:00.641Z,58.67
2018-02-10T00:24:28.965Z,60.65
2018-02-10T00:26:57.392Z,58.83
2018-02-10T00:29:25.873Z,62.08
2018-02-10T00:31:54.196Z,59.33
2018-02-10T00:34:22.512Z,52.70
2018-02-10T00:36:50.863Z,54.58
2018-02-10T00:39:19.971Z,55.15
2018-02-10T00:41:49.036Z,52.70
2018-02-10T00:44:17.378Z,58.15
2018-02-10T00:46:45.701Z,61.33
2018-02-10T00:49:14.832Z,50.08
2018-02-10T00:51:43.260Z,60.00
2018-02-10T00:54:11.564Z,63.03
2018-02-10T00:56:40.662Z,57.50
2018-02-10T00:59:09.743Z,61.65
2018-02-10T01:01:38.126Z,54.25
2018-02-10T01:04:07.290Z,55.95
2018-02-10T01:06:35.615Z,55.60
2018-02-10T01:09:03.929Z,52.90
2018-02-10T01:11:32.243Z,52.97
2018-02-10T01:14:01.360Z,55.55
2018-02-10T01:16:29.673Z,53.33
2018-02-10T01:18:58.016Z,65.07
2018-02-10T01:21:26.317Z,60.92
2018-02-10T01:23:54.661Z,67.00
2018-02-10T01:26:23.000Z,58.10
2018-02-10T01:28:51.425Z,65.15
2018-02-10T01:31:19.822Z,66.68
2018-02-10T01:33:48.178Z,70.75
2018-02-10T01:36:16.499Z,62.78
2018-02-10T01:38:44.825Z,63.35
2018-02-10T01:41:13.139Z,58.10
2018-02-10T01:43:42.288Z,48.50
2018-02-10T01:46:11.379Z,55.38
2018-02-10T01:48:40.661Z,53.13
2018-02-10T01:51:08.999Z,54.03
2018-02-10T01:53:37.304Z,62.13
2018-02-10T01:56:05.652Z,49.53
2018-02-10T01:58:34.128Z,55.90
2018-02-10T02:01:02.435Z,61.03
2018-02-10T02:03:31.522Z,58.33
2018-02-10T02:05:59.829Z,66.72
2018-02-10T02:08:28.923Z,57.42
2018-02-10T02:10:57.998Z,49.50
2018-02-10T02:13:26.376Z,53.00
2018-02-10T02:15:54.717Z,54.60
2018-02-10T02:18:23.044Z,54.03
2018-02-10T02:20:51.383Z,48.80
2018-02-10T02:23:19.720Z,49.67
2018-02-10T02:25:48.120Z,53.63
2018-02-10T02:28:16.416Z,52.15
2018-02-10T02:30:44.759Z,47.40
2018-02-10T02:33:13.064Z,52.40
2018-02-10T02:35:41.391Z,57.42
2018-02-10T02:38:10.457Z,54.75
2018-02-10T02:40:39.201Z,55.78
2018-02-10T02:43:07.882Z,56.95
2018-02-10T02:45:36.200Z,56.50
2018-02-10T02:48:04.534Z,56.42
2018-02-10T02:50:32.839Z,52.58
2018-02-10T02:53:01.179Z,52.83
2018-02-10T02:55:29.729Z,58.58
2018-02-10T02:57:58.900Z,59.90
2018-02-10T03:00:27.348Z,50.70
2018-02-10T03:02:55.793Z,55.97
2018-02-10T03:05:24.877Z,53.97
2018-02-10T03:07:53.180Z,49.75
2018-02-10T03:10:21.519Z,63.95
2018-02-10T03:12:49.820Z,53.05
2018-02-10T03:15:18.132Z,58.83
2018-02-10T03:17:46.449Z,62.22
2018-02-10T03:20:15.537Z,55.00
2018-02-10T03:22:43.853Z,60.88
2018-02-10T03:25:12.206Z,55.25
2018-02-10T03:27:41.300Z,52.95
2018-02-10T03:30:10.400Z,55.20
2018-02-10T03:32:38.784Z,61.85
2018-02-10T03:35:07.098Z,55.25
2018-02-10T03:37:35.436Z,57.62
2018-02-10T03:40:03.882Z,54.88
2018-02-10T03:42:32.408Z,58.17
2018-02-10T03:45:00.732Z,64.07
2018-02-10T03:47:29.301Z,62.15
2018-02-10T03:49:57.649Z,61.75
2018-02-10T03:52:26.039Z,72.95
2018-02-10T03:54:54.375Z,69.37
2018-02-10T03:57:24.038Z,68.25
2018-02-10T03:59:52.370Z,68.00
2018-02-10T04:02:20.663Z,68.70
2018-02-10T04:04:49.002Z,64.93
2018-02-10T04:07:18.081Z,67.32
2018-02-10T04:09:46.386Z,70.05
2018-02-10T04:12:14.755Z,67.32
2018-02-10T04:14:43.861Z,71.87
2018-02-10T04:17:12.264Z,74.97
2018-02-10T04:19:40.576Z,66.55
2018-02-10T04:22:10.365Z,75.15
2018-02-10T04:24:38.708Z,68.87
2018-02-10T04:27:07.013Z,76.47
2018-02-10T04:29:35.338Z,63.80
2018-02-10T04:32:04.440Z,62.65
2018-02-10T04:34:32.761Z,74.65
2018-02-10T04:37:01.106Z,70.05
2018-02-10T04:39:30.187Z,64.50
2018-02-10T04:41:59.248Z,63.22
2018-02-10T04:44:27.735Z,74.50
2018-02-10T04:46:56.061Z,67.28
2018-02-10T04:49:24.479Z,71.35
2018-02-10T04:51:54.297Z,71.65
2018-02-10T04:54:22.646Z,72.68
2018-02-10T04:56:50.947Z,77.12
2018-02-10T04:59:19.270Z,63.85
2018-02-10T05:01:47.595Z,66.32
2018-02-10T05:04:15.898Z,72.78
2018-02-10T05:06:44.996Z,74.72
2018-02-10T05:09:13.375Z,79.72
2018-02-10T05:11:42.494Z,63.78
2018-02-10T05:14:10.830Z,58.97
2018-02-10T05:16:39.209Z,63.95
2018-02-10T05:19:07.535Z,70.95
2018-02-10T05:21:35.884Z,79.75
2018-02-10T05:24:04.328Z,69.28
2018-02-10T05:26:32.638Z,73.25
2018-02-10T05:29:00.967Z,68.43
2018-02-10T05:31:29.274Z,65.57
2018-02-10T05:33:58.381Z,68.53
2018-02-10T05:36:26.709Z,66.80
2018-02-10T05:38:55.024Z,66.15
2018-02-10T05:41:24.138Z,62.67
2018-02-10T05:43:52.472Z,62.85
2018-02-10T05:46:20.790Z,57.62
2018-02-10T05:48:49.097Z,59.70
2018-02-10T05:51:17.540Z,54.35
2018-02-10T05:53:45.870Z,63.63
2018-02-10T05:56:14.355Z,56.08
2018-02-10T05:58:42.694Z,65.50
2018-02-10T06:01:10.990Z,61.15
2018-02-10T06:03:39.344Z,60.45
2018-02-10T06:06:07.754Z,59.88
2018-02-10T06:08:36.927Z,60.75
2018-02-10T06:11:05.225Z,60.80
2018-02-10T06:13:33.885Z,76.57
2018-02-10T06:16:02.375Z,72.78
2018-02-10T06:18:30.693Z,69.87
2018-02-10T06:20:59.030Z,59.95
2018-02-10T06:23:27.329Z,67.80
2018-02-10T06:25:55.679Z,65.30
2018-02-10T06:28:24.154Z,67.35
2018-02-10T06:30:52.490Z,62.38
2018-02-10T06:33:21.677Z,73.25
2018-02-10T06:35:50.919Z,75.75
2018-02-10T06:38:19.259Z,65.95
2018-02-10T06:40:48.337Z,72.70
2018-02-10T06:43:16.718Z,71.72
2018-02-10T06:45:45.799Z,68.30
2018-02-10T06:48:14.922Z,64.72
2018-02-10T06:50:44.024Z,64.45
2018-02-10T06:53:12.405Z,66.12
2018-02-10T06:55:40.755Z,65.53
2018-02-10T06:58:09.904Z,56.80
2018-02-10T07:00:38.369Z,72.57
2018-02-10T07:03:06.768Z,68.12
2018-02-10T07:05:35.101Z,70.62
2018-02-10T07:08:03.544Z,66.72
2018-02-10T07:10:31.884Z,59.42
2018-02-10T07:13:00.365Z,61.67
2018-02-10T07:15:28.836Z,69.30
2018-02-10T07:17:57.250Z,63.65
2018-02-10T07:20:25.595Z,61.35
2018-02-10T07:22:53.920Z,65.68
2018-02-10T07:25:22.335Z,66.50
2018-02-10T07:27:51.183Z,54.17
2018-02-10T07:30:19.579Z,65.93
2018-02-10T07:32:48.027Z,62.38
2018-02-10T07:35:17.054Z,58.03
2018-02-10T07:37:46.147Z,58.92
2018-02-10T07:40:15.999Z,53.83
2018-02-10T07:42:44.439Z,54.55
2018-02-10T07:45:13.533Z,60.50
2018-02-10T07:47:42.639Z,63.50
2018-02-10T07:50:10.968Z,58.00
2018-02-10T07:52:39.284Z,56.15
2018-02-10T07:55:08.402Z,53.22
2018-02-10T07:57:36.909Z,49.03
2018-02-10T08:00:05.266Z,52.92
2018-02-10T08:02:33.611Z,54.65
2018-02-10T08:05:01.968Z,50.38
2018-02-10T08:07:30.306Z,48.53
2018-02-10T08:09:58.644Z,50.55
2018-02-10T08:12:27.723Z,49.83
2018-02-10T08:14:56.800Z,49.47
2018-02-10T08:17:25.136Z,51.03
2018-02-10T08:19:53.721Z,51.92
2018-02-10T08:22:22.073Z,54.67
2018-02-10T08:24:54.506Z,52.05
2018-02-10T08:27:23.626Z,50.78
2018-02-10T08:29:52.883Z,49.47
2018-02-10T08:32:21.336Z,51.08
2018-02-10T08:34:49.693Z,55.97
2018-02-10T08:37:18.765Z,51.65
2018-02-10T08:39:47.312Z,44.08
2018-02-10T08:42:15.679Z,43.40
2018-02-10T08:44:44.259Z,36.35
2018-02-10T08:47:12.786Z,45.05
2018-02-10T08:49:41.897Z,43.38
2018-02-10T08:52:10.223Z,40.85
2018-02-10T08:54:38.573Z,38.92
2018-02-10T08:57:06.909Z,40.55
2018-02-10T08:59:36.026Z,45.47
2018-02-10T09:02:04.375Z,41.37
2018-02-10T09:04:32.703Z,49.63
2018-02-10T09:07:01.085Z,40.20
2018-02-10T09:09:29.436Z,45.88
2018-02-10T09:11:57.802Z,38.22
2018-02-10T09:14:27.140Z,39.83
2018-02-10T09:16:55.479Z,43.63
2018-02-10T09:19:24.641Z,36.28
2018-02-10T09:21:52.951Z,37.50
2018-02-10T09:24:22.079Z,38.17
2018-02-10T09:26:50.401Z,35.85
2018-02-10T09:29:19.576Z,41.03
2018-02-10T09:31:48.694Z,38.92
2018-02-10T09:34:17.018Z,37.83
2018-02-10T09:36:45.322Z,34.72
2018-02-10T09:39:13.653Z,33.05
2018-02-10T09:41:42.019Z,39.38
2018-02-10T09:44:11.116Z,24.80
2018-02-10T09:46:40.273Z,29.87
2018-02-10T09:49:08.590Z,28.40
2018-02-10T09:51:37.026Z,28.55
2018-02-10T09:54:06.109Z,31.10
2018-02-10T09:56:34.413Z,29.05
2018-02-10T09:59:03.087Z,26.70
2018-02-10T10:01:31.443Z,29.50
2018-02-10T10:03:59.774Z,30.83
2018-02-10T10:06:28.233Z,28.17
2018-02-10T10:08:57.444Z,28.45
2018-02-10T10:11:26.643Z,28.80
2018-02-10T10:13:55.808Z,28.20
2018-02-10T10:16:24.231Z,26.37
2018-02-10T10:18:52.655Z,22.08
2018-02-10T10:21:20.992Z,30.15
2018-02-10T10:23:49.397Z,25.60
2018-02-10T10:26:17.863Z,26.42
2018-02-10T10:28:46.202Z,25.00
2018-02-10T10:31:15.326Z,25.65
2018-02-10T10:33:43.710Z,24.02
2018-02-10T10:36:12.288Z,24.65
2018-02-10T10:38:40.610Z,27.15
2018-02-10T10:41:09.007Z,23.02
2018-02-10T10:43:38.117Z,24.30
2018-02-10T10:46:06.527Z,26.87
2018-02-10T10:48:35.248Z,23.80
2018-02-10T10:51:03.604Z,25.17
2018-02-10T10:53:31.940Z,28.30
2018-02-10T10:56:00.551Z,28.77
2018-02-10T10:58:29.001Z,25.08
2018-02-10T11:00:57.620Z,27.42
2018-02-10T11:03:26.062Z,26.85
2018-02-10T11:05:54.371Z,22.52
2018-02-10T11:08:22.818Z,23.05
2018-02-10T11:10:51.168Z,25.75
2018-02-10T11:13:20.299Z,23.10
2018-02-10T11:15:48.683Z,28.75
2018-02-10T11:18:16.977Z,26.15
2018-02-10T11:20:45.315Z,24.90
2018-02-10T11:23:13.634Z,26.98
2018-02-10T11:25:41.988Z,22.73
2018-02-10T11:28:10.287Z,27.00
2018-02-10T11:30:39.353Z,24.42
2018-02-10T11:33:07.699Z,27.10
2018-02-10T11:35:37.030Z,25.27
2018-02-10T11:38:05.383Z,24.63
2018-02-10T11:40:34.691Z,22.20
2018-02-10T11:43:03.023Z,24.73
2018-02-10T11:45:31.497Z,24.17
2018-02-10T11:47:59.912Z,25.77
2018-02-10T11:50:29.184Z,23.00
2018-02-10T11:52:58.442Z,23.92
2018-02-10T11:55:26.759Z,24.63
2018-02-10T11:57:55.285Z,22.50
2018-02-10T12:00:23.663Z,27.35
2018-02-10T12:02:52.102Z,26.65
2018-02-10T12:05:21.241Z,26.40
2018-02-10T12:07:49.788Z,27.13
2018-02-10T12:10:18.996Z,23.17
2018-02-10T12:12:48.165Z,26.25
2018-02-10T12:15:16.650Z,25.92
2018-02-10T12:17:45.010Z,23.58
2018-02-10T12:20:13.481Z,19.20
2018-02-10T12:22:41.949Z,23.62
2018-02-10T12:25:10.263Z,23.00
2018-02-10T12:27:38.620Z,16.58
2018-02-10T12:30:06.929Z,20.80
2018-02-10T12:32:36.162Z,19.80
2018-02-10T12:35:04.479Z,26.35
2018-02-10T12:37:32.966Z,19.23
2018-02-10T12:40:01.296Z,20.77
2018-02-10T12:42:29.634Z,21.35
2018-02-10T12:44:58.907Z,22.70
2018-02-10T12:47:27.290Z,22.20
2018-02-10T12:49:55.604Z,25.33
2018-02-10T12:52:23.976Z,25.33
2018-02-10T12:54:52.462Z,25.27
2018-02-10T12:57:20.821Z,21.12
2018-02-10T12:59:50.876Z,23.52
2018-02-10T13:02:19.186Z,27.55
2018-02-10T13:04:47.848Z,27.17
2018-02-10T13:07:16.574Z,26.73
2018-02-10T13:09:44.998Z,25.40
2018-02-10T13:12:13.327Z,28.08
2018-02-10T13:14:42.509Z,27.02
2018-02-10T13:17:11.030Z,29.85
2018-02-10T13:19:39.342Z,30.45
2018-02-10T13:22:07.705Z,28.90
2018-02-10T13:24:36.016Z,25.98
2018-02-10T13:27:05.187Z,23.48
2018-02-10T13:29:33.518Z,26.27
2018-02-10T13:32:02.837Z,26.00
2018-02-10T13:34:31.231Z,28.87
2018-02-10T13:36:59.528Z,25.73
2018-02-10T13:39:27.830Z,22.08
2018-02-10T13:41:57.077Z,22.13
2018-02-10T13:44:25.428Z,20.75
2018-02-10T13:46:54.746Z,26.10
2018-02-10T13:49:23.083Z,25.02
2018-02-10T13:51:51.655Z,24.37
2018-02-10T13:54:20.170Z,26.62
2018-02-10T13:56:48.503Z,17.55
2018-02-10T13:59:17.626Z,22.17
2018-02-10T14:01:46.707Z,24.67
2018-02-10T14:04:15.819Z,28.20
2018-02-10T14:06:45.258Z,24.73
2018-02-10T14:09:13.554Z,20.83
2018-02-10T14:11:41.994Z,23.60
2018-02-10T14:14:10.347Z,25.75
2018-02-10T14:16:39.528Z,25.42
2018-02-10T14:19:08.208Z,25.50
2018-02-10T14:21:37.373Z,21.25
2018-02-10T14:24:05.954Z,21.80
2018-02-10T14:26:34.339Z,24.08
2018-02-10T14:29:03.876Z,21.67
2018-02-10T14:31:33.078Z,20.67
2018-02-10T14:34:02.383Z,23.65
2018-02-10T14:36:31.622Z,22.95
2018-02-10T14:39:00.350Z,23.92
2018-02-10T14:41:28.687Z,23.80
2018-02-10T14:43:57.055Z,22.83
2018-02-10T14:46:25.373Z,22.58
2018-02-10T14:48:54.561Z,21.80
2018-02-10T14:51:23.113Z,20.85
2018-02-10T14:53:51.435Z,24.20
2018-02-10T14:56:20.590Z,19.05
2018-02-10T14:58:48.916Z,21.75
2018-02-10T15:01:18.065Z,19.45
2018-02-10T15:03:46.543Z,17.20
2018-02-10T15:06:15.072Z,22.17
2018-02-10T15:08:43.409Z,19.73
2018-02-10T15:11:11.752Z,19.90
2018-02-10T15:13:40.080Z,20.83
2018-02-10T15:16:08.450Z,23.85
2018-02-10T15:18:36.900Z,26.77
2018-02-10T15:21:05.205Z,14.48
2018-02-10T15:23:33.615Z,19.25
2018-02-10T15:26:02.063Z,15.43
2018-02-10T15:28:30.379Z,14.20
2018-02-10T15:31:17.294Z,13.30
2018-02-10T15:34:03.450Z,13.60
2018-02-10T15:36:31.792Z,17.27
2018-02-10T15:39:00.094Z,15.73
2018-02-10T15:41:28.467Z,15.30
2018-02-10T15:43:57.340Z,14.77
2018-02-10T15:46:25.694Z,12.05
2018-02-10T15:48:54.295Z,11.10
2018-02-10T15:51:22.728Z,10.80
2018-02-10T15:53:51.841Z,15.55
2018-02-10T15:56:23.736Z,11.80
2018-02-10T15:58:53.155Z,9.73
2018-02-10T16:01:22.597Z,11.55
2018-02-10T16:03:51.759Z,12.05
2018-02-10T16:06:21.255Z,13.23
2018-02-10T16:08:49.578Z,12.13
2018-02-10T16:11:18.720Z,10.60
2018-02-10T16:13:47.057Z,9.77
2018-02-10T16:16:15.383Z,11.23
2018-02-10T16:18:45.113Z,10.82
2018-02-10T16:21:13.487Z,12.45
2018-02-10T16:23:41.843Z,13.23
2018-02-10T16:26:10.532Z,13.38
2018-02-10T16:28:39.525Z,12.75
2018-02-10T16:31:07.877Z,12.23
2018-02-10T16:33:36.477Z,12.35
2018-02-10T16:36:05.186Z,14.73
2018-02-10T16:38:33.520Z,12.73
2018-02-10T16:41:02.057Z,15.43
2018-02-10T16:43:31.180Z,11.75
2018-02-10T16:45:59.494Z,12.55
2018-02-10T16:48:27.857Z,13.85
2018-02-10T16:50:56.270Z,13.40
2018-02-10T16:53:24.830Z,14.55
2018-02-10T16:55:53.552Z,11.82
2018-02-10T16:58:22.633Z,16.10
2018-02-10T17:00:51.181Z,12.05
2018-02-10T17:03:19.486Z,13.20
2018-02-10T17:05:47.930Z,11.65
2018-02-10T17:08:16.307Z,10.18
2018-02-10T17:10:44.749Z,8.13
2018-02-10T17:13:13.378Z,12.40
2018-02-10T17:15:41.692Z,11.15
2018-02-10T17:18:10.798Z,11.00
2018-02-10T17:20:39.142Z,11.27
2018-02-10T17:23:08.234Z,14.27
2018-02-10T17:25:37.465Z,10.73
2018-02-10T17:28:06.693Z,12.40
2018-02-10T17:30:35.020Z,12.85
2018-02-10T17:33:03.512Z,9.60
2018-02-10T17:35:32.658Z,10.88
2018-02-10T17:38:01.222Z,13.30
2018-02-10T17:40:29.539Z,15.95
2018-02-10T17:42:58.272Z,10.55
2018-02-10T17:45:26.663Z,14.35
2018-02-10T17:47:55.081Z,9.90
2018-02-10T17:50:23.380Z,13.23
2018-02-10T17:52:52.511Z,13.48
2018-02-10T17:55:20.853Z,15.23
2018-02-10T17:57:49.945Z,13.27
2018-02-10T18:00:19.479Z,14.93
2018-02-10T18:02:48.370Z,14.30
2018-02-10T18:05:16.938Z,17.45
2018-02-10T18:07:45.270Z,18.10
2018-02-10T18:10:13.579Z,15.55
2018-02-10T18:12:43.418Z,13.48
2018-02-10T18:15:11.735Z,15.32
2018-02-10T18:17:40.238Z,15.32
2018-02-10T18:20:10.145Z,19.35
2018-02-10T18:22:38.677Z,13.90
2018-02-10T18:25:07.660Z,12.82
2018-02-10T18:27:36.086Z,13.55
2018-02-10T18:30:05.132Z,12.70
2018-02-10T18:32:33.692Z,16.65
2018-02-10T18:35:03.645Z,15.98
2018-02-10T18:37:31.986Z,16.62
2018-02-10T18:40:00.317Z,13.15
2018-02-10T18:42:28.658Z,14.93
2018-02-10T18:44:56.983Z,15.13
2018-02-10T18:47:25.518Z,13.07
2018-02-10T18:49:53.864Z,13.90
2018-02-10T18:52:23.053Z,16.80
2018-02-10T18:54:52.203Z,12.00
2018-02-10T18:57:20.534Z,16.65
2018-02-10T18:59:49.719Z,16.90
2018-02-10T19:02:19.200Z,15.30
2018-02-10T19:04:47.608Z,27.95
2018-02-10T19:07:16.765Z,15.00
2018-02-10T19:09:45.937Z,16.08
2018-02-10T19:12:14.395Z,16.23
2018-02-10T19:14:42.938Z,19.30
2018-02-10T19:17:12.193Z,16.77
2018-02-10T19:19:40.621Z,18.17
2018-02-10T19:22:09.041Z,18.20
2018-02-10T19:24:37.369Z,20.55
2018-02-10T19:27:05.710Z,21.92
2018-02-10T19:29:34.138Z,16.70
2018-02-10T19:32:03.427Z,17.20
2018-02-10T19:34:32.515Z,16.35
2018-02-10T19:37:01.174Z,21.77
2018-02-10T19:39:29.487Z,19.65
2018-02-10T19:41:58.594Z,19.08
2018-02-10T19:44:27.964Z,16.27
2018-02-10T19:46:57.188Z,15.85
2018-02-10T19:49:26.453Z,17.17
2018-02-10T19:51:54.903Z,19.35
2018-02-10T19:54:23.475Z,16.30
2018-02-10T19:56:51.837Z,18.20
2018-02-10T19:59:20.366Z,15.63
2018-02-10T20:01:48.971Z,20.50
2018-02-10T20:04:17.960Z,21.23
2018-02-10T20:06:46.301Z,23.73
2018-02-10T20:09:14.671Z,22.52
2018-02-10T20:11:43.971Z,21.48
2018-02-10T20:14:12.319Z,21.20
2018-02-10T20:16:41.582Z,20.95
2018-02-10T20:19:10.692Z,19.92
2018-02-10T20:21:39.807Z,17.90
2018-02-10T20:24:08.196Z,29.45
2018-02-10T20:26:36.543Z,18.30
2018-02-10T20:29:05.825Z,19.52
2018-02-10T20:31:34.333Z,22.05
2018-02-10T20:34:03.938Z,20.85
2018-02-10T20:36:32.316Z,18.17
2018-02-10T20:39:01.953Z,20.88
2018-02-10T20:41:30.334Z,16.55
2018-02-10T20:43:58.722Z,18.55
2018-02-10T20:46:27.165Z,18.20
2018-02-10T20:48:56.341Z,20.30
2018-02-10T20:51:24.681Z,19.35
2018-02-10T20:53:52.998Z,20.95
2018-02-10T20:56:22.108Z,17.45
2018-02-10T20:58:50.457Z,15.75
2018-02-10T21:01:19.056Z,16.60
2018-02-10T21:03:48.202Z,17.40
2018-02-10T21:06:16.532Z,17.02
2018-02-10T21:08:45.719Z,18.08
2018-02-10T21:11:14.796Z,16.67
2018-02-10T21:13:43.287Z,20.95
2018-02-10T21:16:12.250Z,18.65
2018-02-10T21:18:40.669Z,18.23
2018-02-10T21:21:09.049Z,16.65
2018-02-10T21:23:38.215Z,19.55
2018-02-10T21:26:06.567Z,19.62
2018-02-10T21:28:34.936Z,17.60
2018-02-10T21:31:03.312Z,16.58
2018-02-10T21:33:31.664Z,18.12
2018-02-10T21:36:00.033Z,16.80
2018-02-10T21:38:29.185Z,18.25
2018-02-10T21:40:57.593Z,15.95
2018-02-10T21:43:26.683Z,15.50
2018-02-10T21:45:55.778Z,16.58
2018-02-10T21:48:24.885Z,16.05
2018-02-10T21:50:53.983Z,17.05
2018-02-10T21:53:22.291Z,15.43
2018-02-10T21:55:50.637Z,17.27
2018-02-10T21:58:19.134Z,15.43
2018-02-10T22:00:47.689Z,16.20
2018-02-10T22:03:16.819Z,17.48
2018-02-10T22:05:45.125Z,19.85
2018-02-10T22:08:13.464Z,20.55
2018-02-10T22:10:41.778Z,17.25
2018-02-10T22:13:10.124Z,21.20
2018-02-10T22:15:38.440Z,17.70
2018-02-10T22:18:06.814Z,19.55
2018-02-10T22:20:35.158Z,18.52
2018-02-10T22:23:03.534Z,22.77
2018-02-10T22:25:31.876Z,20.33
2018-02-10T22:28:00.183Z,23.75
2018-02-10T22:30:28.546Z,17.17
2018-02-10T22:32:56.882Z,15.73
2018-02-10T22:35:25.322Z,16.30
2018-02-10T22:37:53.621Z,17.55
2018-02-10T22:40:21.971Z,16.48
2018-02-10T22:42:50.291Z,19.75
2018-02-10T22:45:18.702Z,21.73
2018-02-10T22:47:47.232Z,17.85
2018-02-10T22:50:15.576Z,15.85
2018-02-10T22:52:43.934Z,14.23
2018-02-10T22:55:12.253Z,18.20
2018-02-10T22:57:40.609Z,16.25
2018-02-10T23:00:08.914Z,16.73
2018-02-10T23:02:37.399Z,15.95
2018-02-10T23:05:05.908Z,15.63
2018-02-10T23:07:35.034Z,15.52
2018-02-10T23:10:03.666Z,19.17
2018-02-10T23:12:31.985Z,13.52
2018-02-10T23:15:00.324Z,16.45
2018-02-10T23:17:29.401Z,17.90
2018-02-10T23:19:57.742Z,16.35
2018-02-10T23:22:26.057Z,14.77
2018-02-10T23:24:54.391Z,14.82
2018-02-10T23:27:22.774Z,16.30
2018-02-10T23:29:51.238Z,17.75
2018-02-10T23:32:19.554Z,19.77
2018-02-10T23:34:47.908Z,13.65
2018-02-10T23:37:16.238Z,17.27
2018-02-10T23:39:44.569Z,21.85
2018-02-10T23:42:13.863Z,15.70
2018-02-10T23:44:42.176Z,19.98
2018-02-10T23:47:10.570Z,21.58
2018-02-10T23:49:39.665Z,16.62
2018-02-10T23:52:08.767Z,18.98
2018-02-10T23:54:37.114Z,24.40
2018-02-10T23:57:06.971Z,16.27
2018-02-10T23:59:35.286Z,18.20
